createdAt,value
2018-09-12T00:00:54.784Z,92815.55
2018-09-12T00:03:25.608Z,92812.94
2018-09-12T00:05:56.595Z,92807.73
2018-09-12T00:08:27.380Z,92809.69
2018-09-12T00:10:58.185Z,92804.80
2018-09-12T00:13:29.118Z,92807.04
2018-09-12T00:15:59.872Z,92804.19
2018-09-12T00:18:30.740Z,92815.50
2018-09-12T00:21:02.151Z,92808.56
2018-09-12T00:23:32.977Z,92809.64
2018-09-12T00:26:03.761Z,92808.13
2018-09-12T00:28:35.073Z,92798.40
2018-09-12T00:31:05.950Z,92802.17
2018-09-12T00:33:36.786Z,92803.46
2018-09-12T00:36:10.141Z,92798.09
2018-09-12T00:38:40.993Z,92796.36
2018-09-12T00:41:12.248Z,92792.20
2018-09-12T00:43:43.035Z,92791.44
2018-09-12T00:46:14.747Z,92787.20
2018-09-12T00:48:45.719Z,92794.73
2018-09-12T00:51:16.467Z,92799.81
2018-09-12T00:53:47.905Z,92796.71
2018-09-12T00:56:21.513Z,92802.78
2018-09-12T00:58:52.326Z,92804.19
2018-09-12T01:01:23.159Z,92802.52
2018-09-12T01:03:54.433Z,92800.83
2018-09-12T01:06:25.271Z,92805.92
2018-09-12T01:08:56.062Z,92800.42
2018-09-12T01:11:26.834Z,92810.70
2018-09-12T01:13:58.193Z,92807.27
2018-09-12T01:16:29.451Z,92810.08
2018-09-12T01:19:00.413Z,92813.51
2018-09-12T01:21:31.218Z,92806.91
2018-09-12T01:24:02.242Z,92803.38
2018-09-12T01:26:33.067Z,92807.86
2018-09-12T01:29:03.871Z,92801.02
2018-09-12T01:31:34.605Z,92806.34
2018-09-12T01:34:05.725Z,92806.81
2018-09-12T01:36:36.595Z,92807.81
2018-09-12T01:39:09.053Z,92808.31
2018-09-12T01:41:42.570Z,92817.29
2018-09-12T01:44:13.380Z,92806.16
2018-09-12T01:46:44.133Z,92803.88
2018-09-12T01:49:19.036Z,92802.09
2018-09-12T01:51:50.328Z,92811.53
2018-09-12T01:54:21.094Z,92806.41
2018-09-12T01:56:52.860Z,92802.33
2018-09-12T01:59:23.760Z,92810.61
2018-09-12T02:01:55.816Z,92814.91
2018-09-12T02:04:26.665Z,92815.31
2018-09-12T02:06:59.096Z,92811.48
2018-09-12T02:09:30.576Z,92814.09
2018-09-12T02:12:01.397Z,92811.47
2018-09-12T02:14:32.222Z,92814.25
2018-09-12T02:17:02.974Z,92815.88
2018-09-12T02:19:33.835Z,92805.20
2018-09-12T02:22:04.628Z,92812.94
2018-09-12T02:24:35.517Z,92814.24
2018-09-12T02:27:06.917Z,92815.17
2018-09-12T02:29:37.710Z,92806.63
2018-09-12T02:32:08.452Z,92804.28
2018-09-12T02:34:39.869Z,92810.04
2018-09-12T02:37:10.701Z,92806.98
2018-09-12T02:44:33.628Z,92803.30
2018-09-12T02:47:08.875Z,92808.79
2018-09-12T02:49:40.269Z,92805.33
2018-09-12T02:52:11.155Z,92796.92
2018-09-12T02:54:41.950Z,92797.63
2018-09-12T02:57:12.723Z,92799.06
2018-09-12T02:59:43.645Z,92800.16
2018-09-12T03:02:14.465Z,92800.94
2018-09-12T03:04:45.241Z,92794.98
2018-09-12T03:07:16.092Z,92798.49
2018-09-12T03:09:46.857Z,92797.60
2018-09-12T03:12:17.634Z,92801.55
2018-09-12T03:14:48.375Z,92805.81
2018-09-12T03:17:19.613Z,92798.13
2018-09-12T03:19:50.366Z,92802.39
2018-09-12T03:22:21.789Z,92793.20
2018-09-12T03:24:52.547Z,92802.44
2018-09-12T03:27:23.351Z,92799.48
2018-09-12T03:29:54.082Z,92802.77
2018-09-12T03:32:24.967Z,92812.35
2018-09-12T03:34:56.450Z,92808.16
2018-09-12T03:37:27.288Z,92807.99
2018-09-12T03:39:58.033Z,92808.84
2018-09-12T03:42:28.887Z,92811.30
2018-09-12T03:44:59.729Z,92805.98
2018-09-12T03:47:30.528Z,92806.80
2018-09-12T03:50:01.710Z,92813.14
2018-09-12T03:52:32.517Z,92808.83
2018-09-12T03:55:03.832Z,92816.28
2018-09-12T03:57:34.608Z,92815.11
2018-09-12T04:00:05.983Z,92813.22
2018-09-12T04:02:37.216Z,92824.17
2018-09-12T04:05:08.505Z,92821.01
2018-09-12T04:07:40.270Z,92817.44
2018-09-12T04:10:11.014Z,92816.28
2018-09-12T04:12:42.723Z,92821.13
2018-09-12T04:15:13.806Z,92823.56
2018-09-12T04:17:44.573Z,92821.54
2018-09-12T04:20:15.915Z,92821.55
2018-09-12T04:22:46.761Z,92824.98
2018-09-12T04:25:20.169Z,92832.80
2018-09-12T04:27:50.971Z,92832.70
2018-09-12T04:30:21.729Z,92836.53
2018-09-12T04:32:52.629Z,92842.17
2018-09-12T04:35:23.363Z,92848.52
2018-09-12T04:37:54.223Z,92850.37
2018-09-12T04:40:24.982Z,92847.84
2018-09-12T04:42:57.838Z,92845.81
2018-09-12T04:45:29.610Z,92851.50
2018-09-12T04:48:00.523Z,92843.45
2018-09-12T04:50:31.276Z,92848.54
2018-09-12T04:53:02.903Z,92849.84
2018-09-12T04:55:33.642Z,92851.59
2018-09-12T04:58:04.842Z,92847.00
2018-09-12T05:00:35.602Z,92851.39
2018-09-12T05:03:06.506Z,92854.89
2018-09-12T05:05:37.886Z,92850.84
2018-09-12T05:08:09.355Z,92851.13
2018-09-12T05:10:43.819Z,92853.63
2018-09-12T05:13:15.381Z,92854.78
2018-09-12T05:15:47.099Z,92861.28
2018-09-12T05:18:17.907Z,92862.51
2018-09-12T05:20:49.599Z,92866.89
2018-09-12T05:23:20.431Z,92866.30
2018-09-12T05:25:51.309Z,92871.55
2018-09-12T05:28:22.940Z,92874.42
2018-09-12T05:30:53.769Z,92862.92
2018-09-12T05:33:24.661Z,92860.60
2018-09-12T05:35:55.411Z,92869.02
2018-09-12T05:38:26.233Z,92868.06
2018-09-12T05:40:56.988Z,92861.88
2018-09-12T05:43:27.768Z,92859.81
2018-09-12T05:45:58.836Z,92859.89
2018-09-12T05:48:29.733Z,92861.23
2018-09-12T05:51:00.499Z,92859.95
2018-09-12T05:53:32.227Z,92858.22
2018-09-12T05:56:04.535Z,92852.94
2018-09-12T05:58:35.993Z,92852.25
2018-09-12T06:01:07.675Z,92852.02
2018-09-12T06:03:39.192Z,92845.95
2018-09-12T06:06:09.987Z,92846.08
2018-09-12T06:08:41.300Z,92845.69
2018-09-12T06:11:12.819Z,92846.98
2018-09-12T06:13:44.289Z,92843.23
2018-09-12T06:16:15.040Z,92837.88
2018-09-12T06:18:45.963Z,92834.22
2018-09-12T06:21:17.248Z,92835.39
2018-09-12T06:23:48.137Z,92829.61
2018-09-12T06:26:19.712Z,92829.20
2018-09-12T06:28:51.408Z,92831.39
2018-09-12T06:31:22.327Z,92826.50
2018-09-12T06:33:53.956Z,92824.55
2018-09-12T06:36:24.851Z,92825.14
2018-09-12T06:38:56.730Z,92825.69
2018-09-12T06:41:27.541Z,92828.48
2018-09-12T06:43:58.615Z,92827.91
2018-09-12T06:46:29.496Z,92836.39
2018-09-12T06:49:00.732Z,92832.71
2018-09-12T06:51:31.808Z,92829.63
2018-09-12T06:54:02.728Z,92833.10
2018-09-12T06:56:33.565Z,92827.30
2018-09-12T06:59:04.423Z,92840.56
2018-09-12T07:01:35.220Z,92833.73
2018-09-12T07:04:06.882Z,92835.80
2018-09-12T07:06:37.685Z,92832.53
2018-09-12T07:09:10.030Z,92830.74
2018-09-12T07:11:41.872Z,92827.06
2018-09-12T07:14:12.761Z,92825.05
2018-09-12T07:16:44.207Z,92823.41
2018-09-12T07:19:15.081Z,92814.81
2018-09-12T07:21:46.115Z,92818.67
2018-09-12T07:24:17.668Z,92811.23
2018-09-12T07:26:48.506Z,92818.41
2018-09-12T07:29:19.354Z,92809.32
2018-09-12T07:31:50.169Z,92808.20
2018-09-12T07:34:21.081Z,92812.44
2018-09-12T07:36:52.044Z,92803.71
2018-09-12T07:39:23.812Z,92809.91
2018-09-12T07:41:54.729Z,92805.13
2018-09-12T07:44:26.183Z,92804.13
2018-09-12T07:46:57.377Z,92807.98
2018-09-12T07:49:28.263Z,92800.88
2018-09-12T07:51:59.834Z,92797.22
2018-09-12T07:54:30.836Z,92796.42
2018-09-12T07:57:01.727Z,92796.34
2018-09-12T07:59:32.788Z,92797.52
2018-09-12T08:02:03.618Z,92792.88
2018-09-12T08:04:34.561Z,92791.83
2018-09-12T08:07:05.809Z,92797.52
2018-09-12T08:09:36.792Z,92789.75
2018-09-12T08:12:07.638Z,92781.59
2018-09-12T08:14:38.513Z,92784.66
2018-09-12T08:17:09.325Z,92784.13
2018-09-12T08:19:40.443Z,92779.34
2018-09-12T08:22:11.507Z,92777.30
2018-09-12T08:24:42.447Z,92777.17
2018-09-12T08:27:13.304Z,92771.47
2018-09-12T08:29:44.333Z,92768.63
2018-09-12T08:32:15.173Z,92767.39
2018-09-12T08:34:46.064Z,92764.21
2018-09-12T08:37:16.976Z,92764.48
2018-09-12T08:39:48.506Z,92756.80
2018-09-12T08:42:19.411Z,92748.59
2018-09-12T08:44:50.444Z,92754.98
2018-09-12T08:47:21.670Z,92755.52
2018-09-12T08:49:53.163Z,92750.64
2018-09-12T08:52:25.254Z,92749.30
2018-09-12T08:54:56.172Z,92747.34
2018-09-12T08:57:27.754Z,92750.23
2018-09-12T08:59:58.638Z,92743.33
2018-09-12T09:02:29.453Z,92749.34
2018-09-12T09:05:00.590Z,92748.86
2018-09-12T09:07:31.568Z,92741.14
2018-09-12T09:10:02.514Z,92747.48
2018-09-12T09:12:34.907Z,92735.61
2018-09-12T09:15:06.160Z,92737.72
2018-09-12T09:17:37.015Z,92730.08
2018-09-12T09:20:07.966Z,92728.90
2018-09-12T09:22:38.804Z,92730.92
2018-09-12T09:25:09.740Z,92738.81
2018-09-12T09:27:41.485Z,92722.14
2018-09-12T09:30:12.393Z,92723.28
2018-09-12T09:32:43.230Z,92725.78
2018-09-12T09:35:14.371Z,92725.78
2018-09-12T09:37:45.932Z,92721.37
2018-09-12T09:40:16.861Z,92720.68
2018-09-12T09:42:48.291Z,92720.04
2018-09-12T09:45:19.536Z,92724.22
2018-09-12T09:47:50.877Z,92719.32
2018-09-12T09:50:22.370Z,92715.16
2018-09-12T09:52:53.214Z,92718.05
2018-09-12T09:55:24.738Z,92717.46
2018-09-12T09:57:55.573Z,92712.28
2018-09-12T10:00:31.552Z,92714.37
2018-09-12T10:03:07.300Z,92712.59
2018-09-12T10:05:43.415Z,92707.72
2018-09-12T10:08:19.798Z,92701.70
2018-09-12T10:10:50.708Z,92703.98
2018-09-12T10:13:21.548Z,92702.37
2018-09-12T10:15:52.452Z,92697.80
2018-09-12T10:18:23.816Z,92691.98
2018-09-12T10:20:54.717Z,92698.07
2018-09-12T10:23:25.805Z,92694.34
2018-09-12T10:25:56.872Z,92688.10
2018-09-12T10:28:28.696Z,92694.06
2018-09-12T10:31:00.470Z,92684.28
2018-09-12T10:33:31.281Z,92673.89
2018-09-12T10:36:03.555Z,92673.84
2018-09-12T10:38:34.589Z,92678.77
2018-09-12T10:41:05.640Z,92671.25
2018-09-12T10:43:37.556Z,92667.18
2018-09-12T10:46:09.259Z,92666.11
2018-09-12T10:48:40.421Z,92658.94
2018-09-12T10:51:11.270Z,92659.80
2018-09-12T10:53:42.169Z,92663.70
2018-09-12T10:56:13.081Z,92652.52
2018-09-12T10:58:44.173Z,92645.77
2018-09-12T11:01:15.039Z,92641.97
2018-09-12T11:03:46.804Z,92642.27
2018-09-12T11:06:17.664Z,92634.67
2018-09-12T11:08:49.090Z,92639.34
2018-09-12T11:11:20.590Z,92635.20
2018-09-12T11:13:51.568Z,92636.59
2018-09-12T11:16:22.424Z,92637.89
2018-09-12T11:18:54.301Z,92640.19
2018-09-12T11:21:25.162Z,92639.42
2018-09-12T11:23:56.026Z,92631.95
2018-09-12T11:26:28.139Z,92631.05
2018-09-12T11:29:00.496Z,92632.64
2018-09-12T11:31:31.683Z,92627.98
2018-09-12T11:34:04.113Z,92623.73
2018-09-12T11:36:36.159Z,92622.64
2018-09-12T11:39:09.269Z,92622.55
2018-09-12T11:41:41.238Z,92627.98
2018-09-12T11:44:12.079Z,92610.63
2018-09-12T11:46:42.983Z,92615.94
2018-09-12T11:49:14.495Z,92610.58
2018-09-12T11:51:46.516Z,92597.34
2018-09-12T11:54:18.271Z,92591.52
2018-09-12T11:56:49.761Z,92580.77
2018-09-12T11:59:20.614Z,92580.19
2018-09-12T12:01:51.505Z,92582.38
2018-09-12T12:04:23.412Z,92578.45
2018-09-12T12:06:54.460Z,92574.06
2018-09-12T12:09:25.299Z,92572.50
2018-09-12T12:11:56.910Z,92575.23
2018-09-12T12:14:28.764Z,92570.00
2018-09-12T12:16:59.628Z,92576.69
2018-09-12T12:19:31.066Z,92582.30
2018-09-12T12:22:01.996Z,92581.62
2018-09-12T12:24:32.843Z,92585.08
2018-09-12T12:27:04.609Z,92576.43
2018-09-12T12:29:35.469Z,92567.41
2018-09-12T12:32:06.387Z,92562.66
2018-09-12T12:34:37.223Z,92565.84
2018-09-12T12:37:08.106Z,92556.65
2018-09-12T12:39:39.048Z,92557.29
2018-09-12T12:42:10.352Z,92560.19
2018-09-12T12:44:41.691Z,92558.51
2018-09-12T12:47:12.572Z,92562.95
2018-09-12T12:49:43.729Z,92563.42
2018-09-12T12:52:14.672Z,92562.08
2018-09-12T12:54:45.874Z,92559.91
2018-09-12T12:58:41.079Z,92556.17
2018-09-12T13:01:11.920Z,92559.56
2018-09-12T13:03:42.796Z,92566.02
2018-09-12T13:06:13.786Z,92563.68
2018-09-12T13:08:44.671Z,92560.36
2018-09-12T13:11:16.426Z,92556.78
2018-09-12T13:13:47.395Z,92557.73
2018-09-12T13:16:18.225Z,92553.33
2018-09-12T13:18:49.189Z,92547.45
2018-09-12T13:21:20.080Z,92549.75
2018-09-12T13:23:51.339Z,92544.13
2018-09-12T13:26:22.690Z,92540.61
2018-09-12T13:28:54.519Z,92546.84
2018-09-12T13:31:25.360Z,92539.97
2018-09-12T13:33:56.251Z,92535.67
2018-09-12T13:36:29.316Z,92541.83
2018-09-12T13:39:00.351Z,92534.03
2018-09-12T13:41:31.303Z,92536.88
2018-09-12T13:44:02.936Z,92535.55
2018-09-12T13:46:33.784Z,92535.82
2018-09-12T13:49:06.541Z,92525.17
2018-09-12T13:51:38.137Z,92526.20
2018-09-12T13:54:09.015Z,92525.83
2018-09-12T13:56:39.854Z,92530.66
2018-09-12T13:59:11.044Z,92530.82
2018-09-12T14:01:41.827Z,92523.74
2018-09-12T14:04:12.632Z,92517.53
2018-09-12T14:06:43.812Z,92515.94
2018-09-12T14:09:14.703Z,92510.63
2018-09-12T14:11:45.469Z,92515.03
2018-09-12T14:14:16.401Z,92523.27
2018-09-12T14:16:47.170Z,92521.74
2018-09-12T14:19:18.624Z,92517.94
2018-09-12T14:21:50.134Z,92518.39
2018-09-12T14:24:21.140Z,92514.62
2018-09-12T14:26:51.927Z,92512.55
2018-09-12T14:29:22.794Z,92515.23
2018-09-12T14:31:54.234Z,92517.58
2018-09-12T14:34:25.603Z,92512.02
2018-09-12T14:36:56.334Z,92511.05
2018-09-12T14:39:27.605Z,92517.27
2018-09-12T14:41:58.582Z,92526.50
2018-09-12T14:44:29.630Z,92525.14
2018-09-12T14:47:01.012Z,92528.34
2018-09-12T14:49:31.802Z,92531.83
2018-09-12T14:52:02.624Z,92522.48
2018-09-12T14:54:33.540Z,92528.75
2018-09-12T14:57:05.153Z,92525.63
2018-09-12T14:59:36.043Z,92525.95
2018-09-12T15:02:06.864Z,92526.22
2018-09-12T15:04:37.685Z,92524.81
2018-09-12T15:07:11.159Z,92530.64
2018-09-12T15:09:41.967Z,92523.49
2018-09-12T15:12:12.751Z,92532.17
2018-09-12T15:14:44.364Z,92536.22
2018-09-12T15:17:16.388Z,92538.03
2018-09-12T15:19:47.201Z,92535.61
2018-09-12T15:22:18.077Z,92540.15
2018-09-12T15:24:49.101Z,92547.97
2018-09-12T15:27:19.881Z,92544.92
2018-09-12T15:29:50.690Z,92552.53
2018-09-12T15:32:21.488Z,92555.64
2018-09-12T15:34:52.693Z,92552.81
2018-09-12T15:37:23.448Z,92556.45
2018-09-12T15:39:55.111Z,92558.12
2018-09-12T15:42:25.857Z,92561.60
2018-09-12T15:44:56.868Z,92556.88
2018-09-12T15:47:28.579Z,92558.44
2018-09-12T15:49:59.404Z,92554.42
2018-09-12T15:52:32.888Z,92556.55
2018-09-12T15:55:03.691Z,92563.95
2018-09-12T15:57:34.455Z,92570.13
2018-09-12T16:00:06.872Z,92561.52
2018-09-12T16:02:37.802Z,92556.09
2018-09-12T16:05:08.817Z,92560.50
2018-09-12T16:07:39.601Z,92561.55
2018-09-12T16:10:10.831Z,92555.37
2018-09-12T16:12:41.618Z,92556.73
2018-09-12T16:15:12.991Z,92555.01
2018-09-12T16:17:45.361Z,92553.23
2018-09-12T16:20:16.156Z,92548.99
2018-09-12T16:22:46.947Z,92550.03
2018-09-12T16:25:17.768Z,92547.69
2018-09-12T16:27:48.920Z,92553.71
2018-09-12T16:30:20.422Z,92554.87
2018-09-12T16:32:51.198Z,92554.82
2018-09-12T16:35:22.170Z,92555.39
2018-09-12T16:37:52.984Z,92565.09
2018-09-12T16:40:23.905Z,92551.83
2018-09-12T16:42:54.827Z,92556.80
2018-09-12T16:45:26.004Z,92560.89
2018-09-12T16:47:56.918Z,92568.18
2018-09-12T16:50:27.750Z,92571.28
2018-09-12T16:52:59.306Z,92571.88
2018-09-12T16:55:35.119Z,92569.93
2018-09-12T16:58:11.011Z,92571.55
2018-09-12T17:00:47.420Z,92569.22
2018-09-12T17:03:23.532Z,92570.28
2018-09-12T17:06:00.504Z,92568.45
2018-09-12T17:08:36.196Z,92568.52
2018-09-12T17:11:11.924Z,92568.77
2018-09-12T17:13:47.764Z,92571.98
2018-09-12T17:16:23.552Z,92566.81
2018-09-12T17:18:59.402Z,92575.66
2018-09-12T17:21:35.222Z,92572.17
2018-09-12T17:24:11.007Z,92577.59
2018-09-12T17:26:47.083Z,92582.70
2018-09-12T17:29:23.234Z,92580.30
2018-09-12T17:31:58.988Z,92591.27
2018-09-12T17:34:34.847Z,92591.30
2018-09-12T17:44:13.089Z,92596.09
2018-09-12T17:46:48.938Z,92598.03
2018-09-12T17:49:24.660Z,92599.25
2018-09-12T17:51:55.468Z,92603.56
2018-09-12T17:54:31.341Z,92604.67
2018-09-12T17:57:07.346Z,92604.67
2018-09-12T17:59:44.266Z,92608.79
2018-09-12T18:02:20.219Z,92609.06
2018-09-12T18:04:56.299Z,92608.95
2018-09-12T18:07:32.125Z,92614.00
2018-09-12T18:10:07.951Z,92620.44
2018-09-12T18:12:43.697Z,92619.61
2018-09-12T18:15:19.583Z,92622.45
2018-09-12T18:17:55.631Z,92632.56
2018-09-12T18:20:32.471Z,92632.30
2018-09-12T18:23:08.188Z,92632.06
2018-09-12T18:25:43.819Z,92639.48
2018-09-12T18:28:19.696Z,92640.84
2018-09-12T18:30:55.787Z,92639.63
2018-09-12T18:33:31.564Z,92642.48
2018-09-12T18:36:07.601Z,92644.11
2018-09-12T18:38:43.548Z,92650.26
2018-09-12T18:41:19.429Z,92650.93
2018-09-12T18:43:56.204Z,92655.66
2018-09-12T18:46:31.982Z,92652.87
2018-09-12T18:49:07.665Z,92661.91
2018-09-12T18:51:38.518Z,92664.19
2018-09-12T18:54:14.252Z,92660.55
2018-09-12T18:56:50.759Z,92665.27
2018-09-12T18:59:26.600Z,92673.23
2018-09-12T19:02:03.030Z,92665.86
2018-09-12T19:04:38.731Z,92670.16
2018-09-12T19:07:14.587Z,92671.23
2018-09-12T19:09:50.986Z,92663.36
2018-09-12T19:12:27.076Z,92660.23
2018-09-12T19:15:02.699Z,92661.39
2018-09-12T19:17:38.650Z,92651.42
2018-09-12T19:20:14.389Z,92651.91
2018-09-12T19:22:50.309Z,92653.95
2018-09-12T19:25:26.144Z,92652.23
2018-09-12T19:28:02.018Z,92645.99
2018-09-12T19:30:37.772Z,92640.13
2018-09-12T19:33:13.650Z,92643.45
2018-09-12T19:35:49.800Z,92639.58
2018-09-12T19:38:25.622Z,92637.91
2018-09-12T19:41:01.354Z,92644.61
2018-09-12T19:43:37.308Z,92643.16
2018-09-12T19:46:13.174Z,92639.41
2018-09-12T19:48:49.029Z,92640.31
2018-09-12T19:51:19.776Z,92640.45
2018-09-12T19:53:55.936Z,92640.50
2018-09-12T19:56:31.873Z,92636.24
2018-09-12T19:59:08.369Z,92629.02
2018-09-12T20:01:44.020Z,92637.53
2018-09-12T20:04:20.878Z,92638.63
2018-09-12T20:06:57.830Z,92639.03
2018-09-12T20:09:33.837Z,92634.19
2018-09-12T20:12:09.459Z,92623.66
2018-09-12T20:14:45.324Z,92629.05
2018-09-12T20:17:21.022Z,92627.69
2018-09-12T20:19:56.847Z,92620.23
2018-09-12T20:22:32.687Z,92625.78
2018-09-12T20:25:09.083Z,92637.03
2018-09-12T20:27:45.288Z,92625.73
2018-09-12T20:30:21.009Z,92627.69
2018-09-12T20:32:57.000Z,92624.89
2018-09-12T20:35:33.833Z,92624.66
2018-09-12T20:38:09.642Z,92624.11
2018-09-12T20:40:45.632Z,92625.13
2018-09-12T20:43:21.184Z,92625.67
2018-09-12T20:45:56.937Z,92619.41
2018-09-12T20:48:32.712Z,92624.78
2018-09-12T20:51:04.740Z,92624.20
2018-09-12T20:53:35.582Z,92617.66
2018-09-12T20:56:11.857Z,92616.65
2018-09-12T20:58:47.434Z,92620.38
2018-09-12T21:01:23.254Z,92623.34
2018-09-12T21:03:58.966Z,92621.78
2018-09-12T21:06:34.910Z,92622.36
2018-09-12T21:09:13.159Z,92620.12
2018-09-12T21:11:49.423Z,92621.06
2018-09-12T21:14:25.360Z,92614.00
2018-09-12T21:17:01.232Z,92609.96
2018-09-12T21:19:36.978Z,92610.16
2018-09-12T21:22:13.262Z,92603.39
2018-09-12T21:24:48.977Z,92599.08
2018-09-12T21:27:25.493Z,92601.77
2018-09-12T21:30:02.266Z,92608.73
2018-09-12T21:32:37.881Z,92607.27
2018-09-12T21:35:13.586Z,92603.28
2018-09-12T21:37:49.518Z,92604.11
2018-09-12T21:40:25.216Z,92606.09
2018-09-12T21:43:01.133Z,92609.16
2018-09-12T21:45:36.990Z,92610.02
2018-09-12T21:48:12.883Z,92607.63
2018-09-12T21:50:48.781Z,92605.06
2018-09-12T21:53:19.611Z,92602.91
2018-09-12T21:55:55.324Z,92601.70
2018-09-12T21:58:31.287Z,92597.53
2018-09-12T22:01:07.175Z,92601.91
2018-09-12T22:03:43.212Z,92602.52
2018-09-12T22:06:18.905Z,92603.72
2018-09-12T22:08:54.738Z,92596.56
2018-09-12T22:11:30.356Z,92595.53
2018-09-12T22:14:06.359Z,92586.92
2018-09-12T22:16:42.345Z,92584.27
2018-09-12T22:19:18.113Z,92580.17
2018-09-12T22:21:53.806Z,92584.45
2018-09-12T22:24:30.915Z,92580.95
2018-09-12T22:27:06.715Z,92581.58
2018-09-12T22:29:42.487Z,92585.42
2018-09-12T22:32:18.195Z,92580.39
2018-09-12T22:34:54.198Z,92577.58
2018-09-12T22:37:29.918Z,92573.17
2018-09-12T22:40:05.731Z,92561.54
2018-09-12T22:42:42.003Z,92570.42
2018-09-12T22:45:17.965Z,92572.25
2018-09-12T22:47:53.769Z,92577.17
2018-09-12T22:50:30.108Z,92573.48
2018-09-12T22:53:00.855Z,92574.77
2018-09-12T22:55:37.397Z,92563.32
2018-09-12T22:58:13.982Z,92565.95
2018-09-12T23:00:49.791Z,92572.20
2018-09-12T23:03:25.730Z,92569.48
2018-09-12T23:06:01.713Z,92570.64
2018-09-12T23:08:37.533Z,92567.58
2018-09-12T23:11:13.294Z,92567.97
2018-09-12T23:13:49.998Z,92568.44
2018-09-12T23:16:25.702Z,92563.89
2018-09-12T23:19:01.603Z,92554.25
2018-09-12T23:21:37.263Z,92553.18
2018-09-12T23:24:12.993Z,92558.34
2018-09-12T23:26:48.755Z,92554.15
2018-09-12T23:29:24.744Z,92552.59
2018-09-12T23:32:00.557Z,92556.36
2018-09-12T23:34:36.304Z,92554.17
2018-09-12T23:37:12.022Z,92552.90
2018-09-12T23:39:47.967Z,92555.74
2018-09-12T23:42:23.885Z,92559.16
2018-09-12T23:44:59.670Z,92554.25
2018-09-12T23:47:35.397Z,92551.05
2018-09-12T23:50:11.233Z,92555.21
2018-09-12T23:52:42.377Z,92552.58
2018-09-12T23:55:13.154Z,92546.28
2018-09-12T23:57:48.998Z,92545.11
